sensor_id;sensor_type;location;lat;lon;timestamp;temperature;humidity
28532;DHT22;15738;44.860;10.066;2023-07-22T00:02:18;24.40;99.90
28532;DHT22;15738;44.860;10.066;2023-07-22T00:05:04;24.40;99.90
28532;DHT22;15738;44.860;10.066;2023-07-22T00:07:50;24.40;99.90
28532;DHT22;15738;44.860;10.066;2023-07-22T00:10:41;24.40;99.90
28532;DHT22;15738;44.860;10.066;2023-07-22T00:13:27;24.40;99.90
28532;DHT22;15738;44.860;10.066;2023-07-22T00:16:13;24.30;99.90
28532;DHT22;15738;44.860;10.066;2023-07-22T00:18:59;24.30;99.90
28532;DHT22;15738;44.860;10.066;2023-07-22T00:21:45;24.30;99.90
28532;DHT22;15738;44.860;10.066;2023-07-22T00:24:31;24.20;99.90
28532;DHT22;15738;44.860;10.066;2023-07-22T00:27:17;24.20;99.90
28532;DHT22;15738;44.860;10.066;2023-07-22T00:30:07;24.20;99.90
28532;DHT22;15738;44.860;10.066;2023-07-22T00:32:54;24.10;99.90
28532;DHT22;15738;44.860;10.066;2023-07-22T00:35:39;24.00;99.90
28532;DHT22;15738;44.860;10.066;2023-07-22T00:38:25;23.90;99.90
28532;DHT22;15738;44.860;10.066;2023-07-22T00:41:13;23.90;99.90
28532;DHT22;15738;44.860;10.066;2023-07-22T00:44:00;23.80;99.90
28532;DHT22;15738;44.860;10.066;2023-07-22T00:46:46;23.80;99.90
28532;DHT22;15738;44.860;10.066;2023-07-22T00:49:32;23.80;99.90
28532;DHT22;15738;44.860;10.066;2023-07-22T00:52:17;23.70;99.90
28532;DHT22;15738;44.860;10.066;2023-07-22T00:55:05;23.70;99.90
28532;DHT22;15738;44.860;10.066;2023-07-22T00:57:51;23.50;99.90
28532;DHT22;15738;44.860;10.066;2023-07-22T01:00:37;23.60;99.90
28532;DHT22;15738;44.860;10.066;2023-07-22T01:03:23;23.70;99.90
28532;DHT22;15738;44.860;10.066;2023-07-22T01:06:11;23.60;99.90
28532;DHT22;15738;44.860;10.066;2023-07-22T01:08:58;23.50;99.90
28532;DHT22;15738;44.860;10.066;2023-07-22T01:11:44;23.50;99.90
28532;DHT22;15738;44.860;10.066;2023-07-22T01:14:30;23.50;99.90
28532;DHT22;15738;44.860;10.066;2023-07-22T01:17:16;23.40;99.90
28532;DHT22;15738;44.860;10.066;2023-07-22T01:20:03;23.50;99.90
28532;DHT22;15738;44.860;10.066;2023-07-22T01:22:52;23.50;99.90
28532;DHT22;15738;44.860;10.066;2023-07-22T01:25:39;23.50;99.90
28532;DHT22;15738;44.860;10.066;2023-07-22T01:28:25;23.50;99.90
28532;DHT22;15738;44.860;10.066;2023-07-22T01:31:12;23.30;99.90
28532;DHT22;15738;44.860;10.066;2023-07-22T01:33:57;23.50;99.90
28532;DHT22;15738;44.860;10.066;2023-07-22T01:36:46;23.50;99.90
28532;DHT22;15738;44.860;10.066;2023-07-22T01:39:33;23.60;99.90
28532;DHT22;15738;44.860;10.066;2023-07-22T01:42:19;23.60;99.90
28532;DHT22;15738;44.860;10.066;2023-07-22T01:45:06;23.40;99.90
28532;DHT22;15738;44.860;10.066;2023-07-22T01:47:53;23.20;99.90
28532;DHT22;15738;44.860;10.066;2023-07-22T01:50:39;23.30;99.90
28532;DHT22;15738;44.860;10.066;2023-07-22T01:53:25;23.30;99.90
28532;DHT22;15738;44.860;10.066;2023-07-22T01:56:11;23.30;99.90
28532;DHT22;15738;44.860;10.066;2023-07-22T01:58:57;23.30;99.90
28532;DHT22;15738;44.860;10.066;2023-07-22T02:01:43;23.30;99.90
28532;DHT22;15738;44.860;10.066;2023-07-22T02:04:30;23.40;99.90
28532;DHT22;15738;44.860;10.066;2023-07-22T02:07:16;23.40;99.90
28532;DHT22;15738;44.860;10.066;2023-07-22T02:10:02;23.50;99.90
28532;DHT22;15738;44.860;10.066;2023-07-22T02:12:48;23.40;99.90
28532;DHT22;15738;44.860;10.066;2023-07-22T02:15:35;23.40;99.90
28532;DHT22;15738;44.860;10.066;2023-07-22T02:18:21;23.40;99.90
28532;DHT22;15738;44.860;10.066;2023-07-22T02:21:07;23.40;99.90
28532;DHT22;15738;44.860;10.066;2023-07-22T02:23:53;23.40;99.90
28532;DHT22;15738;44.860;10.066;2023-07-22T02:26:39;23.40;99.90
28532;DHT22;15738;44.860;10.066;2023-07-22T02:29:25;23.30;99.90
28532;DHT22;15738;44.860;10.066;2023-07-22T02:32:11;23.30;99.90
28532;DHT22;15738;44.860;10.066;2023-07-22T02:34:57;23.30;99.90
28532;DHT22;15738;44.860;10.066;2023-07-22T02:37:43;23.30;99.90
28532;DHT22;15738;44.860;10.066;2023-07-22T02:40:28;23.20;99.90
28532;DHT22;15738;44.860;10.066;2023-07-22T02:43:15;23.20;99.90
28532;DHT22;15738;44.860;10.066;2023-07-22T02:46:02;23.20;99.90
28532;DHT22;15738;44.860;10.066;2023-07-22T02:48:48;23.20;99.90
28532;DHT22;15738;44.860;10.066;2023-07-22T02:51:34;23.10;99.90
28532;DHT22;15738;44.860;10.066;2023-07-22T02:54:20;23.10;99.90
28532;DHT22;15738;44.860;10.066;2023-07-22T02:57:06;23.10;99.90
28532;DHT22;15738;44.860;10.066;2023-07-22T02:59:52;23.10;99.90
28532;DHT22;15738;44.860;10.066;2023-07-22T03:02:39;23.10;99.90
28532;DHT22;15738;44.860;10.066;2023-07-22T03:05:29;23.00;99.90
28532;DHT22;15738;44.860;10.066;2023-07-22T03:08:16;23.00;99.90
28532;DHT22;15738;44.860;10.066;2023-07-22T03:11:03;23.00;99.90
28532;DHT22;15738;44.860;10.066;2023-07-22T03:13:49;23.00;99.90
28532;DHT22;15738;44.860;10.066;2023-07-22T03:16:35;23.00;99.90
28532;DHT22;15738;44.860;10.066;2023-07-22T03:19:21;23.00;99.90
28532;DHT22;15738;44.860;10.066;2023-07-22T03:22:07;23.00;99.90
28532;DHT22;15738;44.860;10.066;2023-07-22T03:24:54;23.00;99.90
28532;DHT22;15738;44.860;10.066;2023-07-22T03:27:40;23.00;99.90
28532;DHT22;15738;44.860;10.066;2023-07-22T03:30:26;22.90;99.90
28532;DHT22;15738;44.860;10.066;2023-07-22T03:33:12;23.00;99.90
28532;DHT22;15738;44.860;10.066;2023-07-22T03:36:00;22.90;99.90
28532;DHT22;15738;44.860;10.066;2023-07-22T03:38:46;23.00;99.90
28532;DHT22;15738;44.860;10.066;2023-07-22T03:41:32;22.80;99.90
28532;DHT22;15738;44.860;10.066;2023-07-22T03:44:18;22.80;99.90
28532;DHT22;15738;44.860;10.066;2023-07-22T03:47:04;22.90;99.90
28532;DHT22;15738;44.860;10.066;2023-07-22T03:49:50;22.80;99.90
28532;DHT22;15738;44.860;10.066;2023-07-22T03:52:36;22.90;99.90
28532;DHT22;15738;44.860;10.066;2023-07-22T03:55:22;23.00;99.90
28532;DHT22;15738;44.860;10.066;2023-07-22T03:58:08;22.80;99.90
28532;DHT22;15738;44.860;10.066;2023-07-22T04:00:54;22.70;99.90
28532;DHT22;15738;44.860;10.066;2023-07-22T04:03:40;22.70;99.90
28532;DHT22;15738;44.860;10.066;2023-07-22T04:06:26;22.70;99.90
28532;DHT22;15738;44.860;10.066;2023-07-22T04:09:13;22.80;99.90
28532;DHT22;15738;44.860;10.066;2023-07-22T04:11:58;22.80;99.90
28532;DHT22;15738;44.860;10.066;2023-07-22T04:14:44;22.80;99.90
28532;DHT22;15738;44.860;10.066;2023-07-22T04:17:30;22.80;99.90
28532;DHT22;15738;44.860;10.066;2023-07-22T04:20:16;22.80;99.90
28532;DHT22;15738;44.860;10.066;2023-07-22T04:23:03;22.80;99.90
28532;DHT22;15738;44.860;10.066;2023-07-22T04:25:49;22.80;99.90
28532;DHT22;15738;44.860;10.066;2023-07-22T04:28:35;22.80;99.90
28532;DHT22;15738;44.860;10.066;2023-07-22T04:31:23;22.90;99.90
28532;DHT22;15738;44.860;10.066;2023-07-22T04:34:09;23.00;99.90
28532;DHT22;15738;44.860;10.066;2023-07-22T04:36:57;23.00;99.90
28532;DHT22;15738;44.860;10.066;2023-07-22T04:39:47;23.10;99.90
28532;DHT22;15738;44.860;10.066;2023-07-22T04:42:33;23.10;99.90
28532;DHT22;15738;44.860;10.066;2023-07-22T04:45:26;23.10;99.90
28532;DHT22;15738;44.860;10.066;2023-07-22T04:48:17;23.10;99.90
28532;DHT22;15738;44.860;10.066;2023-07-22T04:51:03;23.00;99.90
28532;DHT22;15738;44.860;10.066;2023-07-22T04:53:49;23.00;99.90
28532;DHT22;15738;44.860;10.066;2023-07-22T04:56:35;23.10;99.90
28532;DHT22;15738;44.860;10.066;2023-07-22T04:59:21;23.20;99.90
28532;DHT22;15738;44.860;10.066;2023-07-22T05:02:07;23.30;99.90
28532;DHT22;15738;44.860;10.066;2023-07-22T05:04:53;23.40;99.90
28532;DHT22;15738;44.860;10.066;2023-07-22T05:07:39;23.50;99.90
28532;DHT22;15738;44.860;10.066;2023-07-22T05:10:26;23.50;99.90
28532;DHT22;15738;44.860;10.066;2023-07-22T05:13:14;23.30;99.90
28532;DHT22;15738;44.860;10.066;2023-07-22T05:16:00;23.40;99.90
28532;DHT22;15738;44.860;10.066;2023-07-22T05:18:46;23.60;99.90
28532;DHT22;15738;44.860;10.066;2023-07-22T05:21:32;23.50;99.90
28532;DHT22;15738;44.860;10.066;2023-07-22T05:24:18;23.80;99.90
28532;DHT22;15738;44.860;10.066;2023-07-22T05:27:04;23.80;99.90
28532;DHT22;15738;44.860;10.066;2023-07-22T05:29:54;23.90;99.90
28532;DHT22;15738;44.860;10.066;2023-07-22T05:32:40;24.00;99.90
28532;DHT22;15738;44.860;10.066;2023-07-22T05:35:26;24.10;99.90
28532;DHT22;15738;44.860;10.066;2023-07-22T05:38:12;24.10;99.90
28532;DHT22;15738;44.860;10.066;2023-07-22T05:40:58;24.30;99.90
28532;DHT22;15738;44.860;10.066;2023-07-22T05:43:45;24.40;99.90
28532;DHT22;15738;44.860;10.066;2023-07-22T05:46:30;24.70;99.90
28532;DHT22;15738;44.860;10.066;2023-07-22T05:49:16;25.00;99.90
28532;DHT22;15738;44.860;10.066;2023-07-22T05:52:02;25.10;99.90
28532;DHT22;15738;44.860;10.066;2023-07-22T05:54:48;25.40;99.90
28532;DHT22;15738;44.860;10.066;2023-07-22T05:57:34;25.50;99.90
28532;DHT22;15738;44.860;10.066;2023-07-22T06:00:21;25.70;99.90
28532;DHT22;15738;44.860;10.066;2023-07-22T06:03:07;25.80;99.90
28532;DHT22;15738;44.860;10.066;2023-07-22T06:05:53;26.00;99.90
28532;DHT22;15738;44.860;10.066;2023-07-22T06:08:39;26.10;99.90
28532;DHT22;15738;44.860;10.066;2023-07-22T06:11:25;26.10;99.90
28532;DHT22;15738;44.860;10.066;2023-07-22T06:14:11;26.00;99.90
28532;DHT22;15738;44.860;10.066;2023-07-22T06:16:57;26.10;99.90
28532;DHT22;15738;44.860;10.066;2023-07-22T06:19:43;26.10;99.90
28532;DHT22;15738;44.860;10.066;2023-07-22T06:22:29;26.10;99.90
28532;DHT22;15738;44.860;10.066;2023-07-22T06:25:15;26.40;99.90
28532;DHT22;15738;44.860;10.066;2023-07-22T06:28:01;26.40;99.90
28532;DHT22;15738;44.860;10.066;2023-07-22T06:30:47;26.50;99.90
28532;DHT22;15738;44.860;10.066;2023-07-22T06:33:33;26.40;99.90
28532;DHT22;15738;44.860;10.066;2023-07-22T06:36:19;26.60;99.90
28532;DHT22;15738;44.860;10.066;2023-07-22T06:39:05;26.70;99.90
28532;DHT22;15738;44.860;10.066;2023-07-22T06:41:51;26.90;99.90
28532;DHT22;15738;44.860;10.066;2023-07-22T06:44:37;27.10;99.90
28532;DHT22;15738;44.860;10.066;2023-07-22T06:47:23;27.40;99.90
28532;DHT22;15738;44.860;10.066;2023-07-22T06:50:09;27.60;99.90
28532;DHT22;15738;44.860;10.066;2023-07-22T06:52:55;27.40;99.90
28532;DHT22;15738;44.860;10.066;2023-07-22T06:55:51;27.60;99.90
28532;DHT22;15738;44.860;10.066;2023-07-22T06:58:37;27.80;99.90
28532;DHT22;15738;44.860;10.066;2023-07-22T07:01:23;28.00;99.90
28532;DHT22;15738;44.860;10.066;2023-07-22T07:04:09;28.20;99.90
28532;DHT22;15738;44.860;10.066;2023-07-22T07:06:55;28.30;99.90
28532;DHT22;15738;44.860;10.066;2023-07-22T07:09:42;27.70;99.90
28532;DHT22;15738;44.860;10.066;2023-07-22T07:12:27;27.50;99.90
28532;DHT22;15738;44.860;10.066;2023-07-22T07:15:13;27.50;99.90
28532;DHT22;15738;44.860;10.066;2023-07-22T07:17:59;27.40;99.90
28532;DHT22;15738;44.860;10.066;2023-07-22T07:20:45;27.20;99.90
28532;DHT22;15738;44.860;10.066;2023-07-22T07:23:31;27.00;99.90
28532;DHT22;15738;44.860;10.066;2023-07-22T07:26:18;26.70;99.90
28532;DHT22;15738;44.860;10.066;2023-07-22T07:29:04;26.80;99.90
28532;DHT22;15738;44.860;10.066;2023-07-22T07:31:50;27.10;99.90
28532;DHT22;15738;44.860;10.066;2023-07-22T07:34:36;27.20;99.90
28532;DHT22;15738;44.860;10.066;2023-07-22T07:37:23;27.70;99.90
28532;DHT22;15738;44.860;10.066;2023-07-22T07:40:09;27.90;99.90
28532;DHT22;15738;44.860;10.066;2023-07-22T07:42:55;28.20;99.90
28532;DHT22;15738;44.860;10.066;2023-07-22T07:45:41;28.00;99.90
28532;DHT22;15738;44.860;10.066;2023-07-22T07:48:27;27.70;99.90
28532;DHT22;15738;44.860;10.066;2023-07-22T07:51:15;27.60;99.90
28532;DHT22;15738;44.860;10.066;2023-07-22T07:54:01;27.60;99.90
28532;DHT22;15738;44.860;10.066;2023-07-22T07:56:49;27.70;99.90
28532;DHT22;15738;44.860;10.066;2023-07-22T07:59:35;27.70;99.90
28532;DHT22;15738;44.860;10.066;2023-07-22T08:02:24;27.90;99.90
28532;DHT22;15738;44.860;10.066;2023-07-22T08:05:10;28.20;99.90
28532;DHT22;15738;44.860;10.066;2023-07-22T08:07:55;28.10;99.90
28532;DHT22;15738;44.860;10.066;2023-07-22T08:10:41;28.00;99.90
28532;DHT22;15738;44.860;10.066;2023-07-22T08:13:29;27.80;99.90
28532;DHT22;15738;44.860;10.066;2023-07-22T08:16:16;27.80;99.90
28532;DHT22;15738;44.860;10.066;2023-07-22T08:19:03;27.90;99.90
28532;DHT22;15738;44.860;10.066;2023-07-22T08:21:50;28.30;99.90
28532;DHT22;15738;44.860;10.066;2023-07-22T08:24:36;28.40;99.90
28532;DHT22;15738;44.860;10.066;2023-07-22T08:27:22;28.70;99.90
28532;DHT22;15738;44.860;10.066;2023-07-22T08:30:09;28.30;99.90
28532;DHT22;15738;44.860;10.066;2023-07-22T08:32:55;28.10;99.90
28532;DHT22;15738;44.860;10.066;2023-07-22T08:35:41;28.00;99.90
28532;DHT22;15738;44.860;10.066;2023-07-22T08:38:27;28.20;99.90
28532;DHT22;15738;44.860;10.066;2023-07-22T08:41:17;28.50;99.90
28532;DHT22;15738;44.860;10.066;2023-07-22T08:44:04;29.20;99.90
28532;DHT22;15738;44.860;10.066;2023-07-22T08:46:56;29.40;99.90
28532;DHT22;15738;44.860;10.066;2023-07-22T08:49:50;29.50;99.90
28532;DHT22;15738;44.860;10.066;2023-07-22T08:52:37;29.00;99.90
28532;DHT22;15738;44.860;10.066;2023-07-22T08:55:23;29.30;99.90
28532;DHT22;15738;44.860;10.066;2023-07-22T08:58:10;29.20;99.90
28532;DHT22;15738;44.860;10.066;2023-07-22T09:00:56;29.40;99.90
28532;DHT22;15738;44.860;10.066;2023-07-22T09:03:44;29.20;99.90
28532;DHT22;15738;44.860;10.066;2023-07-22T09:06:31;29.30;99.90
28532;DHT22;15738;44.860;10.066;2023-07-22T09:09:17;29.50;99.90
28532;DHT22;15738;44.860;10.066;2023-07-22T09:12:04;29.80;99.90
28532;DHT22;15738;44.860;10.066;2023-07-22T09:14:52;30.00;99.90
28532;DHT22;15738;44.860;10.066;2023-07-22T09:17:39;30.10;99.90
28532;DHT22;15738;44.860;10.066;2023-07-22T09:20:26;29.70;99.90
28532;DHT22;15738;44.860;10.066;2023-07-22T09:23:14;29.70;99.90
28532;DHT22;15738;44.860;10.066;2023-07-22T09:26:14;29.40;99.90
28532;DHT22;15738;44.860;10.066;2023-07-22T09:29:00;29.70;99.90
28532;DHT22;15738;44.860;10.066;2023-07-22T09:31:50;29.80;99.90
28532;DHT22;15738;44.860;10.066;2023-07-22T09:34:37;29.70;99.90
28532;DHT22;15738;44.860;10.066;2023-07-22T09:37:35;29.70;99.90
28532;DHT22;15738;44.860;10.066;2023-07-22T09:40:26;29.60;99.90
28532;DHT22;15738;44.860;10.066;2023-07-22T09:43:12;29.60;99.90
28532;DHT22;15738;44.860;10.066;2023-07-22T09:46:09;30.00;99.90
28532;DHT22;15738;44.860;10.066;2023-07-22T09:49:05;30.10;99.90
28532;DHT22;15738;44.860;10.066;2023-07-22T09:51:52;29.90;99.90
28532;DHT22;15738;44.860;10.066;2023-07-22T09:54:48;30.00;99.90
28532;DHT22;15738;44.860;10.066;2023-07-22T09:57:35;30.20;99.90
28532;DHT22;15738;44.860;10.066;2023-07-22T10:00:28;30.30;99.90
28532;DHT22;15738;44.860;10.066;2023-07-22T10:03:16;30.40;99.90
28532;DHT22;15738;44.860;10.066;2023-07-22T10:06:05;30.40;99.90
28532;DHT22;15738;44.860;10.066;2023-07-22T10:08:51;30.30;99.90
28532;DHT22;15738;44.860;10.066;2023-07-22T10:11:39;30.50;99.90
28532;DHT22;15738;44.860;10.066;2023-07-22T10:14:25;30.30;99.90
28532;DHT22;15738;44.860;10.066;2023-07-22T10:17:15;30.30;99.90
28532;DHT22;15738;44.860;10.066;2023-07-22T10:20:02;30.30;99.90
28532;DHT22;15738;44.860;10.066;2023-07-22T10:22:53;29.90;99.90
28532;DHT22;15738;44.860;10.066;2023-07-22T10:25:39;29.80;99.90
28532;DHT22;15738;44.860;10.066;2023-07-22T10:28:25;30.20;99.90
28532;DHT22;15738;44.860;10.066;2023-07-22T10:31:15;30.40;99.90
28532;DHT22;15738;44.860;10.066;2023-07-22T10:34:05;30.70;99.90
28532;DHT22;15738;44.860;10.066;2023-07-22T10:36:50;30.80;99.90
28532;DHT22;15738;44.860;10.066;2023-07-22T10:39:37;30.60;99.90
28532;DHT22;15738;44.860;10.066;2023-07-22T10:42:26;30.60;99.90
28532;DHT22;15738;44.860;10.066;2023-07-22T10:45:29;30.50;99.90
28532;DHT22;15738;44.860;10.066;2023-07-22T10:48:18;30.70;99.90
28532;DHT22;15738;44.860;10.066;2023-07-22T10:51:13;30.80;99.90
28532;DHT22;15738;44.860;10.066;2023-07-22T10:54:00;31.00;99.90
28532;DHT22;15738;44.860;10.066;2023-07-22T10:56:46;30.80;99.90
28532;DHT22;15738;44.860;10.066;2023-07-22T10:59:33;29.90;99.90
28532;DHT22;15738;44.860;10.066;2023-07-22T11:02:26;29.80;99.90
28532;DHT22;15738;44.860;10.066;2023-07-22T11:05:16;29.50;99.90
28532;DHT22;15738;44.860;10.066;2023-07-22T11:08:05;29.50;99.90
28532;DHT22;15738;44.860;10.066;2023-07-22T11:10:53;29.30;99.90
28532;DHT22;15738;44.860;10.066;2023-07-22T11:13:40;29.30;99.90
28532;DHT22;15738;44.860;10.066;2023-07-22T11:16:29;29.20;99.90
28532;DHT22;15738;44.860;10.066;2023-07-22T11:19:17;29.30;99.90
28532;DHT22;15738;44.860;10.066;2023-07-22T11:22:04;29.30;99.90
28532;DHT22;15738;44.860;10.066;2023-07-22T11:24:50;29.20;99.90
28532;DHT22;15738;44.860;10.066;2023-07-22T11:27:37;29.20;99.90
28532;DHT22;15738;44.860;10.066;2023-07-22T11:30:24;29.20;99.90
28532;DHT22;15738;44.860;10.066;2023-07-22T11:33:10;29.20;99.90
28532;DHT22;15738;44.860;10.066;2023-07-22T11:35:56;28.70;99.90
28532;DHT22;15738;44.860;10.066;2023-07-22T11:38:42;28.30;99.90
28532;DHT22;15738;44.860;10.066;2023-07-22T11:41:27;28.00;99.90
28532;DHT22;15738;44.860;10.066;2023-07-22T11:44:16;28.00;99.90
28532;DHT22;15738;44.860;10.066;2023-07-22T11:47:05;27.80;99.90
28532;DHT22;15738;44.860;10.066;2023-07-22T11:49:53;27.90;99.90
28532;DHT22;15738;44.860;10.066;2023-07-22T11:52:39;27.90;99.90
28532;DHT22;15738;44.860;10.066;2023-07-22T11:55:25;28.00;99.90
28532;DHT22;15738;44.860;10.066;2023-07-22T11:58:28;28.20;99.90
28532;DHT22;15738;44.860;10.066;2023-07-22T12:01:14;28.40;99.90
28532;DHT22;15738;44.860;10.066;2023-07-22T12:04:01;28.60;99.90
28532;DHT22;15738;44.860;10.066;2023-07-22T12:06:46;28.50;99.90
28532;DHT22;15738;44.860;10.066;2023-07-22T12:09:32;28.60;99.90
28532;DHT22;15738;44.860;10.066;2023-07-22T12:12:18;28.90;99.90
28532;DHT22;15738;44.860;10.066;2023-07-22T12:15:25;29.10;99.90
28532;DHT22;15738;44.860;10.066;2023-07-22T12:18:10;29.20;99.90
28532;DHT22;15738;44.860;10.066;2023-07-22T12:20:57;29.30;99.90
28532;DHT22;15738;44.860;10.066;2023-07-22T12:23:43;29.40;99.90
28532;DHT22;15738;44.860;10.066;2023-07-22T12:26:36;29.60;99.90
28532;DHT22;15738;44.860;10.066;2023-07-22T12:29:22;29.70;99.90
28532;DHT22;15738;44.860;10.066;2023-07-22T12:32:12;29.50;99.90
28532;DHT22;15738;44.860;10.066;2023-07-22T12:34:59;29.60;99.90
28532;DHT22;15738;44.860;10.066;2023-07-22T12:37:47;29.70;99.90
28532;DHT22;15738;44.860;10.066;2023-07-22T12:40:34;29.80;99.90
28532;DHT22;15738;44.860;10.066;2023-07-22T12:43:20;29.90;99.90
28532;DHT22;15738;44.860;10.066;2023-07-22T12:46:06;29.90;99.90
28532;DHT22;15738;44.860;10.066;2023-07-22T12:48:52;29.90;99.90
28532;DHT22;15738;44.860;10.066;2023-07-22T12:51:38;30.00;99.90
28532;DHT22;15738;44.860;10.066;2023-07-22T12:54:24;30.20;99.90
28532;DHT22;15738;44.860;10.066;2023-07-22T12:57:10;30.20;99.90
28532;DHT22;15738;44.860;10.066;2023-07-22T12:59:55;30.40;99.90
28532;DHT22;15738;44.860;10.066;2023-07-22T13:02:41;30.30;99.90
28532;DHT22;15738;44.860;10.066;2023-07-22T13:05:27;30.40;99.90
28532;DHT22;15738;44.860;10.066;2023-07-22T13:08:13;30.30;99.90
28532;DHT22;15738;44.860;10.066;2023-07-22T13:10:59;30.40;99.90
28532;DHT22;15738;44.860;10.066;2023-07-22T13:13:44;30.30;99.90
28532;DHT22;15738;44.860;10.066;2023-07-22T13:16:30;30.10;99.90
28532;DHT22;15738;44.860;10.066;2023-07-22T13:19:16;30.20;99.90
28532;DHT22;15738;44.860;10.066;2023-07-22T13:22:02;30.20;99.90
28532;DHT22;15738;44.860;10.066;2023-07-22T13:24:48;30.20;99.90
28532;DHT22;15738;44.860;10.066;2023-07-22T13:27:34;30.20;99.90
28532;DHT22;15738;44.860;10.066;2023-07-22T13:30:20;30.10;99.90
28532;DHT22;15738;44.860;10.066;2023-07-22T13:33:06;29.90;99.90
28532;DHT22;15738;44.860;10.066;2023-07-22T13:35:52;29.70;99.90
28532;DHT22;15738;44.860;10.066;2023-07-22T13:38:38;29.50;99.90
28532;DHT22;15738;44.860;10.066;2023-07-22T13:41:24;29.40;99.90
28532;DHT22;15738;44.860;10.066;2023-07-22T13:44:10;29.30;99.90
28532;DHT22;15738;44.860;10.066;2023-07-22T13:46:56;29.20;99.90
28532;DHT22;15738;44.860;10.066;2023-07-22T13:49:42;29.20;99.90
28532;DHT22;15738;44.860;10.066;2023-07-22T13:52:27;29.10;99.90
28532;DHT22;15738;44.860;10.066;2023-07-22T13:55:13;29.10;99.90
28532;DHT22;15738;44.860;10.066;2023-07-22T13:57:58;29.10;99.90
28532;DHT22;15738;44.860;10.066;2023-07-22T14:00:45;29.00;99.90
28532;DHT22;15738;44.860;10.066;2023-07-22T14:03:30;29.10;99.90
28532;DHT22;15738;44.860;10.066;2023-07-22T14:06:16;29.00;99.90
28532;DHT22;15738;44.860;10.066;2023-07-22T14:09:02;29.10;99.90
28532;DHT22;15738;44.860;10.066;2023-07-22T14:11:49;29.00;99.90
28532;DHT22;15738;44.860;10.066;2023-07-22T14:14:34;29.10;99.90
28532;DHT22;15738;44.860;10.066;2023-07-22T14:17:20;29.20;99.90
28532;DHT22;15738;44.860;10.066;2023-07-22T14:20:06;29.30;99.90
28532;DHT22;15738;44.860;10.066;2023-07-22T14:22:52;29.50;99.90
28532;DHT22;15738;44.860;10.066;2023-07-22T14:25:38;29.50;99.90
28532;DHT22;15738;44.860;10.066;2023-07-22T14:28:23;29.50;99.90
28532;DHT22;15738;44.860;10.066;2023-07-22T14:31:09;29.50;99.90
28532;DHT22;15738;44.860;10.066;2023-07-22T14:33:55;29.40;99.90
28532;DHT22;15738;44.860;10.066;2023-07-22T14:36:41;29.50;99.90
28532;DHT22;15738;44.860;10.066;2023-07-22T14:39:30;29.60;99.90
28532;DHT22;15738;44.860;10.066;2023-07-22T14:42:16;29.60;99.90
28532;DHT22;15738;44.860;10.066;2023-07-22T14:45:02;29.70;99.90
28532;DHT22;15738;44.860;10.066;2023-07-22T14:47:48;29.50;99.90
28532;DHT22;15738;44.860;10.066;2023-07-22T14:50:34;29.50;99.90
28532;DHT22;15738;44.860;10.066;2023-07-22T14:53:19;29.50;99.90
28532;DHT22;15738;44.860;10.066;2023-07-22T14:56:05;29.40;99.90
28532;DHT22;15738;44.860;10.066;2023-07-22T14:58:54;29.30;99.90
28532;DHT22;15738;44.860;10.066;2023-07-22T15:01:41;29.30;99.90
28532;DHT22;15738;44.860;10.066;2023-07-22T15:04:27;29.40;99.90
28532;DHT22;15738;44.860;10.066;2023-07-22T15:07:13;29.40;99.90
28532;DHT22;15738;44.860;10.066;2023-07-22T15:09:59;29.50;99.90
28532;DHT22;15738;44.860;10.066;2023-07-22T15:12:45;29.60;99.90
28532;DHT22;15738;44.860;10.066;2023-07-22T15:15:31;29.70;99.90
28532;DHT22;15738;44.860;10.066;2023-07-22T15:18:16;29.70;99.90
28532;DHT22;15738;44.860;10.066;2023-07-22T15:21:02;29.70;99.90
28532;DHT22;15738;44.860;10.066;2023-07-22T15:23:48;29.70;99.90
28532;DHT22;15738;44.860;10.066;2023-07-22T15:26:35;29.70;99.90
28532;DHT22;15738;44.860;10.066;2023-07-22T15:29:20;29.80;99.90
28532;DHT22;15738;44.860;10.066;2023-07-22T15:32:08;29.90;99.90
28532;DHT22;15738;44.860;10.066;2023-07-22T15:34:54;29.80;99.90
28532;DHT22;15738;44.860;10.066;2023-07-22T15:37:40;29.70;99.90
28532;DHT22;15738;44.860;10.066;2023-07-22T15:40:29;29.80;99.90
28532;DHT22;15738;44.860;10.066;2023-07-22T15:43:25;29.90;99.90
28532;DHT22;15738;44.860;10.066;2023-07-22T15:46:10;30.00;99.90
28532;DHT22;15738;44.860;10.066;2023-07-22T15:49:05;29.90;99.90
28532;DHT22;15738;44.860;10.066;2023-07-22T15:51:52;29.70;99.90
28532;DHT22;15738;44.860;10.066;2023-07-22T15:54:38;29.50;99.90
28532;DHT22;15738;44.860;10.066;2023-07-22T15:57:25;29.50;99.90
28532;DHT22;15738;44.860;10.066;2023-07-22T16:00:11;29.60;99.90
28532;DHT22;15738;44.860;10.066;2023-07-22T16:02:58;29.70;99.90
28532;DHT22;15738;44.860;10.066;2023-07-22T16:05:44;29.70;99.90
28532;DHT22;15738;44.860;10.066;2023-07-22T16:08:30;29.70;99.90
28532;DHT22;15738;44.860;10.066;2023-07-22T16:11:17;29.80;99.90
28532;DHT22;15738;44.860;10.066;2023-07-22T16:14:03;29.80;99.90
28532;DHT22;15738;44.860;10.066;2023-07-22T16:16:49;29.80;99.90
28532;DHT22;15738;44.860;10.066;2023-07-22T16:19:35;29.70;99.90
28532;DHT22;15738;44.860;10.066;2023-07-22T16:22:21;29.70;99.90
28532;DHT22;15738;44.860;10.066;2023-07-22T16:25:07;29.70;99.90
28532;DHT22;15738;44.860;10.066;2023-07-22T16:27:54;29.50;99.90
28532;DHT22;15738;44.860;10.066;2023-07-22T16:30:40;29.50;99.90
28532;DHT22;15738;44.860;10.066;2023-07-22T16:33:26;29.40;99.90
28532;DHT22;15738;44.860;10.066;2023-07-22T16:36:12;29.40;99.90
28532;DHT22;15738;44.860;10.066;2023-07-22T16:38:58;29.40;99.90
28532;DHT22;15738;44.860;10.066;2023-07-22T16:41:43;29.40;99.90
28532;DHT22;15738;44.860;10.066;2023-07-22T16:44:29;29.40;99.90
28532;DHT22;15738;44.860;10.066;2023-07-22T16:47:15;29.40;99.90
28532;DHT22;15738;44.860;10.066;2023-07-22T16:50:01;29.20;99.90
28532;DHT22;15738;44.860;10.066;2023-07-22T16:52:47;29.20;99.90
28532;DHT22;15738;44.860;10.066;2023-07-22T16:55:33;29.30;99.90
28532;DHT22;15738;44.860;10.066;2023-07-22T16:58:19;29.30;99.90
28532;DHT22;15738;44.860;10.066;2023-07-22T17:01:04;29.30;99.90
28532;DHT22;15738;44.860;10.066;2023-07-22T17:03:50;29.20;99.90
28532;DHT22;15738;44.860;10.066;2023-07-22T17:06:36;29.10;99.90
28532;DHT22;15738;44.860;10.066;2023-07-22T17:09:22;29.20;99.90
28532;DHT22;15738;44.860;10.066;2023-07-22T17:12:07;29.10;99.90
28532;DHT22;15738;44.860;10.066;2023-07-22T17:14:53;29.10;99.90
28532;DHT22;15738;44.860;10.066;2023-07-22T17:17:39;29.10;99.90